Terminal Aerodrome Forecast
Issued by NWS

Home | Current Version | Previous Version | Text Only | Print | Product List | Glossary On
Versions: 1 2 3 4 5 6 7 8 9 10 11 12 13 14 15 16 17 18 19 20 21 22 23 24 25 26 27 28
000
FTUS46 KPDT 310600 AAA
TAFALW
TAF AMD
KALW 310606Z 3106/0106 VRB03KT P6SM OVC010
     FM310900 VRB03KT 5SM BR OVC008
     FM311600 20003KT 5SM BR OVC010
     FM312000 27004KT P6SM OVC015
     FM010400 10003KT P6SM OVC010=

USA.gov is the U.S. government's official web portal to all federal, state and local government web resources and services.